createdAt,value
2022-08-17T00:01:32.770Z,21.67
2022-08-17T00:04:19.059Z,19.85
2022-08-17T00:06:45.823Z,20.30
2022-08-17T00:09:12.575Z,21.35
2022-08-17T00:12:35.091Z,21.88
2022-08-17T00:14:31.827Z,23.60
2022-08-17T00:16:58.836Z,20.98
2022-08-17T00:19:26.361Z,20.73
2022-08-17T00:22:31.323Z,24.83
2022-08-17T00:24:43.055Z,21.50
2022-08-17T00:27:09.540Z,20.77
2022-08-17T00:29:36.003Z,20.05
2022-08-17T00:33:13.959Z,22.02
2022-08-17T00:34:49.977Z,20.15
2022-08-17T00:37:16.678Z,20.33
2022-08-17T00:39:43.237Z,18.92
2022-08-17T00:42:14.933Z,20.88
2022-08-17T00:44:41.398Z,22.02
2022-08-17T00:47:07.930Z,22.35
2022-08-17T00:49:34.434Z,20.00
2022-08-17T00:52:10.875Z,19.67
2022-08-17T00:54:42.389Z,20.73
2022-08-17T00:57:15.030Z,22.42
2022-08-17T00:59:47.173Z,20.42
2022-08-17T01:02:41.256Z,20.42
2022-08-17T01:05:15.273Z,19.92
2022-08-17T01:07:43.392Z,21.15
2022-08-17T01:11:00.255Z,21.27
2022-08-17T01:13:02.489Z,16.80
2022-08-17T01:15:36.427Z,17.83
2022-08-17T01:18:07.889Z,22.83
2022-08-17T01:20:48.614Z,20.00
2022-08-17T01:23:20.818Z,21.20
2022-08-17T01:25:53.968Z,18.45
2022-08-17T01:28:33.630Z,17.63
2022-08-17T01:31:09.602Z,17.20
2022-08-17T01:33:36.834Z,17.77
2022-08-17T01:36:06.871Z,19.38
2022-08-17T01:38:35.893Z,21.50
2022-08-17T01:41:07.824Z,21.70
2022-08-17T01:43:57.340Z,18.25
2022-08-17T01:46:29.179Z,19.15
2022-08-17T01:48:57.560Z,17.10
2022-08-17T01:51:32.721Z,16.50
2022-08-17T01:54:05.209Z,20.60
2022-08-17T01:56:33.883Z,16.85
2022-08-17T01:59:00.358Z,14.10
2022-08-17T02:01:30.135Z,20.45
2022-08-17T02:04:00.769Z,19.77
2022-08-17T02:06:30.523Z,19.33
2022-08-17T02:09:03.051Z,15.63
2022-08-17T02:11:33.171Z,14.05
2022-08-17T02:14:02.887Z,16.13
2022-08-17T02:16:37.288Z,16.92
2022-08-17T02:19:07.531Z,16.13
2022-08-17T02:21:34.639Z,15.77
2022-08-17T02:24:01.773Z,14.55
2022-08-17T02:26:28.370Z,18.67
2022-08-17T02:28:54.934Z,18.25
2022-08-17T02:31:21.689Z,14.93
2022-08-17T02:34:00.422Z,16.85
2022-08-17T02:36:33.041Z,14.10
2022-08-17T02:39:01.451Z,19.83
2022-08-17T02:41:28.006Z,16.55
2022-08-17T02:43:54.490Z,16.65
2022-08-17T02:46:21.024Z,15.98
2022-08-17T02:48:47.526Z,14.80
2022-08-17T02:51:14.589Z,16.40
2022-08-17T02:53:41.071Z,15.18
2022-08-17T02:56:07.728Z,16.05
2022-08-17T02:58:35.331Z,16.35
2022-08-17T03:01:06.531Z,17.13
2022-08-17T03:05:59.859Z,19.00
2022-08-17T03:08:26.564Z,20.13
2022-08-17T03:10:53.642Z,17.27
2022-08-17T03:13:20.730Z,17.13
2022-08-17T03:15:48.586Z,15.93
2022-08-17T03:18:19.159Z,17.92
2022-08-17T03:20:52.063Z,20.73
2022-08-17T03:23:18.683Z,17.65
2022-08-17T03:25:53.075Z,16.85
2022-08-17T03:28:21.206Z,18.38
2022-08-17T03:30:47.712Z,18.25
2022-08-17T03:33:14.618Z,22.75
2022-08-17T03:35:41.475Z,15.73
2022-08-17T03:38:10.275Z,18.15
2022-08-17T03:40:58.057Z,17.77
2022-08-17T03:43:24.225Z,21.10
2022-08-17T03:46:26.997Z,21.20
2022-08-17T03:49:15.558Z,15.77
2022-08-17T03:52:00.349Z,15.75
2022-08-17T03:54:45.180Z,15.52
2022-08-17T03:57:12.427Z,14.60
2022-08-17T03:59:39.098Z,15.80
2022-08-17T04:02:18.595Z,14.23
2022-08-17T04:04:45.130Z,15.05
2022-08-17T04:07:11.697Z,17.23
2022-08-17T04:09:38.261Z,16.30
2022-08-17T04:12:05.453Z,24.17
2022-08-17T04:14:39.256Z,22.42
2022-08-17T04:17:21.203Z,19.23
2022-08-17T04:19:47.763Z,23.23
2022-08-17T04:22:30.188Z,17.67
2022-08-17T04:24:58.899Z,17.98
2022-08-17T04:27:25.508Z,22.75
2022-08-17T04:29:54.763Z,17.48
2022-08-17T04:33:02.920Z,18.17
2022-08-17T04:35:09.722Z,16.45
2022-08-17T04:37:36.212Z,18.58
2022-08-17T04:40:21.986Z,20.02
2022-08-17T04:43:10.638Z,19.85
2022-08-17T04:45:55.458Z,18.23
2022-08-17T04:48:35.774Z,16.42
2022-08-17T04:51:07.305Z,17.02
2022-08-17T04:53:33.874Z,17.48
2022-08-17T04:56:00.405Z,15.95
2022-08-17T04:58:27.826Z,16.30
2022-08-17T05:00:54.345Z,17.70
2022-08-17T05:03:20.961Z,19.13
2022-08-17T05:05:49.586Z,16.73
2022-08-17T05:08:19.045Z,19.10
2022-08-17T05:10:46.882Z,18.95
2022-08-17T05:13:17.033Z,17.98
2022-08-17T05:15:47.794Z,17.75
2022-08-17T05:18:15.637Z,18.10
2022-08-17T05:20:42.850Z,16.92
2022-08-17T05:23:12.989Z,17.00
2022-08-17T05:25:42.235Z,16.42
2022-08-17T05:28:15.981Z,22.25
2022-08-17T05:30:43.986Z,17.80
2022-08-17T05:33:14.919Z,24.52
2022-08-17T05:35:46.922Z,20.85
2022-08-17T05:38:15.264Z,26.95
2022-08-17T05:40:41.992Z,16.65
2022-08-17T05:43:15.161Z,20.42
2022-08-17T05:46:01.913Z,18.95
2022-08-17T05:48:39.176Z,18.00
2022-08-17T05:51:06.674Z,17.65
2022-08-17T05:53:47.189Z,17.70
2022-08-17T05:56:37.299Z,20.02
2022-08-17T05:59:30.490Z,16.30
2022-08-17T06:02:06.169Z,19.95
2022-08-17T06:04:54.060Z,16.80
2022-08-17T06:07:48.058Z,18.65
2022-08-17T06:10:18.468Z,18.65
2022-08-17T06:13:21.431Z,19.17
2022-08-17T06:15:56.413Z,23.25
2022-08-17T06:18:28.609Z,14.40
2022-08-17T06:21:00.403Z,17.83
2022-08-17T06:23:36.125Z,17.73
2022-08-17T06:26:10.986Z,18.15
2022-08-17T06:28:43.622Z,19.65
2022-08-17T06:31:22.553Z,14.90
2022-08-17T06:33:50.305Z,13.43
2022-08-17T06:36:50.460Z,15.10
2022-08-17T06:39:32.828Z,15.00
2022-08-17T06:42:54.812Z,14.43
2022-08-17T06:45:17.711Z,17.58
2022-08-17T06:48:13.069Z,16.58
2022-08-17T06:50:46.497Z,11.68
2022-08-17T06:53:47.648Z,14.35
2022-08-17T06:56:54.227Z,14.85
2022-08-17T06:59:22.319Z,18.70
2022-08-17T07:01:52.122Z,25.30
2022-08-17T07:04:26.437Z,24.85
2022-08-17T07:07:24.724Z,17.27
2022-08-17T07:09:53.019Z,15.52
2022-08-17T07:12:24.341Z,15.63
2022-08-17T07:15:18.939Z,15.10
2022-08-17T07:17:48.957Z,14.65
2022-08-17T07:20:20.541Z,17.10
2022-08-17T07:23:03.315Z,16.30
2022-08-17T07:25:30.746Z,13.68
2022-08-17T07:28:02.400Z,14.05
2022-08-17T07:30:45.594Z,18.40
2022-08-17T07:33:19.856Z,17.02
2022-08-17T07:35:48.404Z,19.45
2022-08-17T07:38:25.205Z,16.25
2022-08-17T07:40:57.813Z,16.17
2022-08-17T07:43:36.817Z,16.52
2022-08-17T07:46:53.791Z,17.85
2022-08-17T07:49:46.403Z,15.60
2022-08-17T07:52:51.408Z,17.13
2022-08-17T07:55:34.976Z,18.70
2022-08-17T07:58:04.858Z,17.55
2022-08-17T08:00:33.568Z,14.68
2022-08-17T08:03:31.965Z,13.88
2022-08-17T08:06:02.080Z,18.10
2022-08-17T08:08:34.724Z,14.25
2022-08-17T08:11:17.802Z,12.93
2022-08-17T08:13:45.898Z,12.00
2022-08-17T08:16:29.498Z,14.30
2022-08-17T08:19:01.736Z,13.82
2022-08-17T08:21:55.304Z,15.77
2022-08-17T08:24:46.649Z,18.20
2022-08-17T08:27:38.463Z,15.20
2022-08-17T08:30:16.824Z,15.02
2022-08-17T08:32:52.036Z,13.82
2022-08-17T08:35:22.584Z,16.35
2022-08-17T08:38:02.538Z,12.82
2022-08-17T08:40:42.923Z,17.13
2022-08-17T08:43:22.292Z,20.00
2022-08-17T08:46:07.652Z,19.00
2022-08-17T08:48:55.999Z,16.45
2022-08-17T08:51:33.700Z,13.75
2022-08-17T08:54:10.568Z,12.85
2022-08-17T08:57:22.391Z,15.77
2022-08-17T09:00:08.557Z,15.55
2022-08-17T09:03:10.894Z,11.18
2022-08-17T09:06:06.892Z,18.08
2022-08-17T09:09:09.453Z,32.92
2022-08-17T09:12:20.857Z,13.75
2022-08-17T09:15:15.786Z,16.38
2022-08-17T09:17:49.525Z,14.57
2022-08-17T09:20:33.780Z,16.05
2022-08-17T09:23:08.586Z,11.57
2022-08-17T09:25:56.261Z,13.70
2022-08-17T09:28:44.756Z,12.52
2022-08-17T09:31:20.259Z,14.25
2022-08-17T09:33:48.884Z,16.08
2022-08-17T09:36:26.337Z,13.75
2022-08-17T09:39:03.155Z,12.02
2022-08-17T09:41:58.251Z,11.48
2022-08-17T09:44:37.873Z,10.70
2022-08-17T09:47:32.186Z,11.83
2022-08-17T09:50:08.971Z,15.25
2022-08-17T09:52:35.643Z,14.88
2022-08-17T09:55:02.215Z,14.25
2022-08-17T09:57:34.682Z,16.90
2022-08-17T10:00:16.589Z,16.40
2022-08-17T10:03:16.065Z,14.43
2022-08-17T10:05:48.866Z,14.77
2022-08-17T10:08:25.507Z,17.63
2022-08-17T10:10:58.964Z,14.13
2022-08-17T10:13:35.477Z,11.82
2022-08-17T10:16:10.786Z,13.05
2022-08-17T10:19:15.573Z,19.35
2022-08-17T10:22:14.711Z,13.52
2022-08-17T10:25:22.679Z,11.77
2022-08-17T10:28:01.703Z,17.30
2022-08-17T10:30:32.648Z,14.55
2022-08-17T10:33:02.748Z,14.43
2022-08-17T10:35:37.654Z,17.55
2022-08-17T10:38:24.404Z,16.38
2022-08-17T10:41:00.364Z,17.83
2022-08-17T10:44:38.282Z,16.13
2022-08-17T10:47:14.393Z,13.25
2022-08-17T10:49:56.083Z,17.02
2022-08-17T10:52:22.880Z,13.43
2022-08-17T10:54:51.392Z,16.95
2022-08-17T10:57:27.390Z,17.60
2022-08-17T10:59:56.070Z,12.50
2022-08-17T11:02:31.430Z,19.23
2022-08-17T11:05:00.671Z,14.48
2022-08-17T11:07:43.730Z,17.23
2022-08-17T11:10:19.250Z,14.93
2022-08-17T11:13:03.932Z,10.40
2022-08-17T11:15:37.926Z,14.80
2022-08-17T11:18:32.511Z,14.02
2022-08-17T11:21:04.911Z,14.55
2022-08-17T11:23:48.453Z,14.70
2022-08-17T11:26:26.504Z,15.75
2022-08-17T11:29:00.009Z,13.65
2022-08-17T11:31:41.472Z,13.60
2022-08-17T11:34:18.453Z,14.85
2022-08-17T11:37:11.696Z,16.77
2022-08-17T11:40:06.520Z,18.60
2022-08-17T11:43:10.689Z,10.95
2022-08-17T11:46:10.810Z,10.63
2022-08-17T11:49:04.994Z,15.05
2022-08-17T11:52:01.196Z,24.08
2022-08-17T11:54:33.835Z,13.77
2022-08-17T11:57:27.040Z,19.10
2022-08-17T11:59:53.502Z,16.08
2022-08-17T12:02:19.897Z,14.52
2022-08-17T12:05:12.413Z,14.82
2022-08-17T12:08:15.139Z,11.50
2022-08-17T12:11:10.665Z,13.30
2022-08-17T12:13:54.446Z,17.05
2022-08-17T12:16:21.935Z,12.45
2022-08-17T12:18:57.959Z,10.13
2022-08-17T12:21:31.379Z,11.52
2022-08-17T12:24:23.415Z,16.17
2022-08-17T12:26:56.814Z,21.23
2022-08-17T12:29:35.718Z,18.73
2022-08-17T12:32:07.073Z,14.93
2022-08-17T12:34:39.063Z,15.18
2022-08-17T12:37:13.432Z,14.65
2022-08-17T12:39:49.862Z,12.02
2022-08-17T12:42:29.954Z,15.68
2022-08-17T12:44:57.251Z,10.70
2022-08-17T12:47:25.029Z,13.48
2022-08-17T12:50:08.181Z,12.77
2022-08-17T12:52:59.697Z,12.05
2022-08-17T12:55:32.561Z,8.35
2022-08-17T12:58:01.872Z,16.95
2022-08-17T13:00:40.929Z,11.15
2022-08-17T13:03:24.199Z,10.70
2022-08-17T13:05:59.841Z,11.95
2022-08-17T13:08:31.345Z,12.18
2022-08-17T13:11:24.497Z,15.00
2022-08-17T13:13:56.988Z,22.92
2022-08-17T13:16:30.418Z,12.82
2022-08-17T13:19:29.788Z,12.00
2022-08-17T13:22:11.337Z,9.32
2022-08-17T13:24:38.659Z,22.92
2022-08-17T13:27:09.650Z,12.63
2022-08-17T13:29:38.976Z,15.52
2022-08-17T13:32:13.042Z,14.38
2022-08-17T13:35:13.197Z,11.38
2022-08-17T13:37:36.551Z,9.95
2022-08-17T13:40:08.823Z,11.60
2022-08-17T13:42:52.339Z,14.15
2022-08-17T13:45:36.341Z,9.85
2022-08-17T13:48:27.977Z,11.90
2022-08-17T13:50:54.393Z,9.70
2022-08-17T13:53:29.482Z,17.92
2022-08-17T13:56:37.801Z,15.43
2022-08-17T13:59:02.744Z,13.93
2022-08-17T14:01:37.442Z,10.40
2022-08-17T14:04:07.780Z,9.88
2022-08-17T14:09:47.831Z,11.10
2022-08-17T14:12:17.436Z,12.38
2022-08-17T14:14:44.955Z,13.52
2022-08-17T14:17:12.424Z,11.77
2022-08-17T14:19:39.572Z,14.82
2022-08-17T14:22:11.585Z,17.45
2022-08-17T14:24:44.601Z,10.50
2022-08-17T14:27:12.042Z,16.52
2022-08-17T14:29:41.017Z,14.07
2022-08-17T14:32:17.765Z,8.15
2022-08-17T14:34:45.871Z,16.30
2022-08-17T14:37:12.454Z,11.75
2022-08-17T14:39:39.047Z,14.80
2022-08-17T14:42:05.693Z,13.93
2022-08-17T14:44:32.472Z,13.50
2022-08-17T14:46:59.013Z,13.30
2022-08-17T14:49:25.956Z,12.40
2022-08-17T14:51:52.857Z,16.40
2022-08-17T14:54:32.850Z,11.90
2022-08-17T14:57:22.193Z,12.38
2022-08-17T14:59:48.804Z,12.93
2022-08-17T15:02:20.150Z,10.68
2022-08-17T15:04:47.669Z,12.32
2022-08-17T15:07:17.817Z,13.93
2022-08-17T15:09:44.326Z,15.07
2022-08-17T15:12:18.187Z,11.25
2022-08-17T15:14:44.681Z,11.52
2022-08-17T15:17:11.531Z,13.80
2022-08-17T15:19:37.981Z,14.35
2022-08-17T15:22:04.507Z,11.93
2022-08-17T15:24:30.974Z,18.60
2022-08-17T15:26:57.469Z,12.93
2022-08-17T15:29:23.990Z,10.27
2022-08-17T15:31:50.486Z,15.95
2022-08-17T15:34:17.376Z,12.45
2022-08-17T15:36:49.231Z,11.45
2022-08-17T15:39:19.220Z,15.40
2022-08-17T15:41:47.265Z,15.48
2022-08-17T15:44:24.603Z,11.65
2022-08-17T15:46:59.280Z,15.90
2022-08-17T15:49:25.784Z,15.80
2022-08-17T15:51:52.263Z,13.27
2022-08-17T15:54:22.755Z,14.38
2022-08-17T15:56:50.277Z,12.88
2022-08-17T15:59:16.747Z,17.88
2022-08-17T16:03:01.766Z,12.30
2022-08-17T16:04:31.808Z,29.63
2022-08-17T16:06:59.887Z,12.15
2022-08-17T16:09:26.735Z,15.63
2022-08-17T16:11:55.520Z,18.75
2022-08-17T16:14:24.115Z,18.23
2022-08-17T16:16:51.063Z,24.25
2022-08-17T16:19:17.626Z,18.17
2022-08-17T16:21:44.105Z,20.35
2022-08-17T16:24:13.181Z,21.48
2022-08-17T16:26:39.986Z,20.25
2022-08-17T16:29:06.843Z,25.92
2022-08-17T16:31:33.596Z,22.80
2022-08-17T16:34:15.806Z,20.70
2022-08-17T16:36:55.182Z,21.48
2022-08-17T16:39:27.392Z,29.45
2022-08-17T16:41:55.668Z,21.98
2022-08-17T16:44:22.432Z,22.65
2022-08-17T16:46:48.987Z,20.80
2022-08-17T16:49:35.425Z,26.30
2022-08-17T16:52:09.613Z,26.17
2022-08-17T16:54:43.496Z,24.60
2022-08-17T16:57:11.303Z,26.85
2022-08-17T16:59:40.993Z,24.40
2022-08-17T17:02:14.378Z,24.95
2022-08-17T17:05:18.723Z,26.67
2022-08-17T17:08:17.508Z,23.02
2022-08-17T17:10:57.286Z,24.77
2022-08-17T17:13:34.786Z,29.35
2022-08-17T17:16:28.645Z,28.48
2022-08-17T17:19:34.318Z,30.20
2022-08-17T17:22:27.550Z,28.80
2022-08-17T17:25:15.950Z,31.52
2022-08-17T17:27:48.359Z,30.88
2022-08-17T17:30:20.665Z,27.80
2022-08-17T17:33:13.825Z,28.33
2022-08-17T17:35:59.464Z,27.75
2022-08-17T17:38:34.342Z,29.70
2022-08-17T17:41:08.564Z,34.25
2022-08-17T17:43:40.266Z,29.88
2022-08-17T17:46:29.294Z,30.05
2022-08-17T17:48:59.555Z,30.52
2022-08-17T17:52:06.887Z,28.77
2022-08-17T17:54:55.128Z,33.30
2022-08-17T17:57:44.141Z,32.42
2022-08-17T18:00:19.567Z,29.55
2022-08-17T18:03:05.618Z,34.35
2022-08-17T18:05:44.438Z,28.52
2022-08-17T18:08:35.715Z,29.40
2022-08-17T18:11:26.647Z,33.88
2022-08-17T18:14:22.982Z,32.85
2022-08-17T18:16:55.535Z,30.40
2022-08-17T18:19:25.632Z,32.53
2022-08-17T18:22:02.608Z,32.03
2022-08-17T18:24:39.215Z,36.92
2022-08-17T18:27:21.511Z,38.70
2022-08-17T18:29:49.410Z,33.88
2022-08-17T18:32:21.873Z,33.20
2022-08-17T18:34:55.906Z,42.55
2022-08-17T18:37:33.908Z,39.47
2022-08-17T18:40:20.283Z,36.22
2022-08-17T18:43:26.681Z,37.53
2022-08-17T18:45:56.722Z,42.13
2022-08-17T18:48:33.789Z,40.08
2022-08-17T18:51:20.285Z,40.70
2022-08-17T18:54:06.631Z,39.88
2022-08-17T18:56:40.328Z,41.97
2022-08-17T18:59:23.105Z,40.33
2022-08-17T19:02:15.341Z,41.40
2022-08-17T19:05:07.747Z,38.35
2022-08-17T19:07:43.337Z,43.40
2022-08-17T19:10:28.169Z,42.92
2022-08-17T19:13:12.809Z,44.08
2022-08-17T19:15:48.003Z,51.17
2022-08-17T19:18:39.257Z,45.50
2022-08-17T19:21:16.461Z,44.03
2022-08-17T19:24:19.332Z,43.92
2022-08-17T19:26:55.495Z,42.97
2022-08-17T19:29:38.525Z,41.83
2022-08-17T19:32:07.893Z,44.15
2022-08-17T19:34:37.179Z,45.13
2022-08-17T19:37:31.042Z,46.58
2022-08-17T19:40:09.769Z,44.10
2022-08-17T19:42:54.995Z,46.97
2022-08-17T19:45:45.098Z,41.47
2022-08-17T19:48:14.513Z,53.83
2022-08-17T19:50:54.163Z,47.17
2022-08-17T19:53:36.884Z,49.63
2022-08-17T19:56:31.049Z,45.83
2022-08-17T19:59:11.275Z,51.35
2022-08-17T20:02:01.086Z,39.13
2022-08-17T20:04:32.007Z,38.47
2022-08-17T20:07:23.481Z,40.33
2022-08-17T20:12:26.617Z,43.67
2022-08-17T20:15:00.010Z,42.72
2022-08-17T20:17:39.335Z,41.92
2022-08-17T20:20:20.864Z,46.15
2022-08-17T20:23:11.825Z,42.08
2022-08-17T20:25:45.311Z,43.28
2022-08-17T20:28:23.900Z,46.85
2022-08-17T20:30:52.006Z,41.08
2022-08-17T20:33:25.147Z,48.47
2022-08-17T20:36:19.445Z,48.47
2022-08-17T20:38:53.700Z,50.47
2022-08-17T20:41:23.698Z,46.40
2022-08-17T20:44:03.212Z,46.42
2022-08-17T20:46:49.805Z,48.95
2022-08-17T20:49:17.169Z,42.20
2022-08-17T20:52:07.632Z,48.67
2022-08-17T20:54:52.210Z,44.63
2022-08-17T20:57:36.714Z,46.63
2022-08-17T21:00:14.949Z,42.03
2022-08-17T21:02:47.293Z,46.38
2022-08-17T21:05:59.843Z,38.40
2022-08-17T21:08:37.225Z,42.33
2022-08-17T21:12:02.311Z,39.83
2022-08-17T21:14:26.687Z,41.17
2022-08-17T21:17:14.844Z,40.47
2022-08-17T21:20:11.960Z,36.25
2022-08-17T21:23:06.641Z,39.83
2022-08-17T21:25:57.665Z,41.92
2022-08-17T21:29:00.463Z,38.72
2022-08-17T21:31:38.238Z,41.13
2022-08-17T21:34:45.222Z,39.85
2022-08-17T21:37:22.185Z,33.70
2022-08-17T21:40:18.209Z,27.80
2022-08-17T21:42:47.698Z,30.73
2022-08-17T21:45:22.274Z,29.90
2022-08-17T21:48:09.025Z,31.10
2022-08-17T21:50:36.025Z,28.33
2022-08-17T21:53:04.038Z,29.85
2022-08-17T21:55:33.942Z,29.42
2022-08-17T21:58:13.675Z,25.13
2022-08-17T22:00:44.310Z,24.10
2022-08-17T22:03:24.188Z,19.92
2022-08-17T22:05:51.318Z,25.17
2022-08-17T22:08:21.426Z,24.10
2022-08-17T22:10:50.674Z,30.23
2022-08-17T22:13:17.689Z,19.08
2022-08-17T22:15:48.041Z,20.00
2022-08-17T22:18:25.006Z,23.40
2022-08-17T22:21:02.468Z,21.83
2022-08-17T22:23:50.888Z,19.85
2022-08-17T22:26:19.505Z,22.80
2022-08-17T22:28:56.345Z,22.33
2022-08-17T22:31:27.755Z,23.02
2022-08-17T22:33:59.896Z,23.02
2022-08-17T22:36:26.355Z,19.67
2022-08-17T22:39:02.079Z,21.42
2022-08-17T22:41:51.804Z,30.27
2022-08-17T22:44:34.062Z,23.98
2022-08-17T22:47:06.701Z,22.63
2022-08-17T22:49:54.132Z,25.52
2022-08-17T22:53:01.831Z,23.17
2022-08-17T22:55:51.693Z,25.63
2022-08-17T22:58:38.980Z,23.05
2022-08-17T23:01:25.511Z,19.08
2022-08-17T23:04:35.720Z,24.52
2022-08-17T23:07:02.275Z,20.13
2022-08-17T23:09:29.854Z,22.50
2022-08-17T23:11:58.449Z,27.80
2022-08-17T23:14:31.535Z,16.60
2022-08-17T23:17:02.030Z,23.60
2022-08-17T23:19:31.598Z,19.70
2022-08-17T23:21:59.206Z,20.05
2022-08-17T23:24:28.861Z,21.90
2022-08-17T23:26:59.966Z,21.48
2022-08-17T23:29:29.207Z,20.63
2022-08-17T23:31:59.615Z,23.35
2022-08-17T23:34:27.983Z,20.70
2022-08-17T23:36:55.146Z,21.77
2022-08-17T23:39:24.682Z,23.33
2022-08-17T23:41:57.021Z,22.83
2022-08-17T23:44:23.809Z,21.90
2022-08-17T23:46:53.406Z,22.27
2022-08-17T23:49:20.227Z,20.02
2022-08-17T23:51:48.151Z,19.90
2022-08-17T23:54:34.011Z,18.08
2022-08-17T23:57:02.183Z,20.27
2022-08-17T23:59:29.182Z,16.92
